Time;durP1;ratioP1;P1;durP2;ratioP2;P2;SDS_P1;SDS_P2;PMS_P1;PMS_P2;Temp;Humidity;BMP_temperature;BMP_pressure;BME280_temperature;BME280_humidity;BME280_pressure;Samples;Min_cycle;Max_cycle;Signal;HPM_P1;HPM_P2
2023/01/11 00:01:41;;;;;;;13.90;7.10;;;;;;;12.67;nan;102808.69;4802958;29;20520;-89
2023/01/11 00:04:09;;;;;;;14.23;7.57;;;;;;;12.68;nan;102807.69;4848796;29;20462;-89
2023/01/11 00:06:38;;;;;;;19.93;7.13;;;;;;;12.74;nan;102816.13;4834589;29;20458;-89
2023/01/11 00:09:05;;;;;;;11.70;6.03;;;;;;;12.75;nan;102811.50;4833933;29;20456;-89
2023/01/11 00:11:38;;;;;;;9.20;5.80;;;;;;;12.76;nan;102813.22;4856037;29;20485;-89
2023/01/11 00:14:07;;;;;;;9.13;5.83;;;;;;;12.66;nan;102790.50;4898566;29;20453;-89
2023/01/11 00:16:36;;;;;;;9.30;5.60;;;;;;;12.73;nan;102805.31;4869347;29;20513;-89
2023/01/11 00:19:05;;;;;;;18.03;7.40;;;;;;;12.76;nan;102794.03;4879305;29;20871;-89
2023/01/11 00:21:36;;;;;;;12.37;7.77;;;;;;;12.77;nan;102790.25;4884280;29;20453;-89
2023/01/11 00:24:04;;;;;;;13.23;8.30;;;;;;;12.73;nan;102786.09;4907012;29;20456;-89
2023/01/11 00:26:34;;;;;;;13.13;8.20;;;;;;;12.77;nan;102787.50;4887991;29;20457;-87
2023/01/11 00:29:06;;;;;;;15.60;8.07;;;;;;;12.82;nan;102801.63;4903267;29;20468;-87
2023/01/11 00:31:34;;;;;;;14.33;8.33;;;;;;;12.82;nan;102787.91;4901498;29;20551;-87
2023/01/11 00:34:03;;;;;;;13.63;7.83;;;;;;;12.83;nan;102789.63;4887768;29;20944;-87
2023/01/11 00:36:31;;;;;;;12.93;6.60;;;;;;;12.86;nan;102794.81;4887628;29;20452;-87
2023/01/11 00:39:01;;;;;;;8.90;6.20;;;;;;;12.88;nan;102795.50;4884555;29;20457;-87
2023/01/11 00:50:26;;;;;;;17.33;5.03;;;;;;;12.98;nan;102779.81;4898561;29;20456;-87
2023/01/11 00:52:57;;;;;;;9.50;4.40;;;;;;;12.98;nan;102779.81;4883557;29;20517;-87
2023/01/11 00:55:27;;;;;;;10.57;5.20;;;;;;;12.97;nan;102766.22;4900359;29;20851;-87
2023/01/11 00:57:57;;;;;;;8.17;4.30;;;;;;;12.97;nan;102761.59;4893832;29;20463;-90
2023/01/11 01:00:25;;;;;;;15.43;4.60;;;;;;;13.02;nan;102764.75;4884098;29;20442;-88
2023/01/11 01:02:55;;;;;;;9.27;2.90;;;;;;;13.06;nan;102768.91;4883884;29;20513;-87
2023/01/11 01:05:24;;;;;;;4.47;2.30;;;;;;;13.02;nan;102775.72;4883639;29;20457;-88
2023/01/11 01:07:58;;;;;;;10.90;2.90;;;;;;;13.02;nan;102774.84;4914471;29;20848;-88
2023/01/11 01:10:26;;;;;;;11.43;3.57;;;;;;;13.02;nan;102767.50;4899019;29;20505;-88
2023/01/11 01:15:47;;;;;;;6.90;3.80;;;;;;;13.09;nan;102776.78;4891082;29;20448;-88
2023/01/11 01:18:15;;;;;;;6.33;3.40;;;;;;;13.16;nan;102773.44;4886500;29;20471;-88
2023/01/11 01:20:50;;;;;;;6.90;3.20;;;;;;;13.16;nan;102767.94;4878802;29;20536;-88
2023/01/11 01:23:19;;;;;;;7.00;3.30;;;;;;;13.21;nan;102771.09;4883427;29;20488;-88
2023/01/11 01:25:49;;;;;;;6.53;2.63;;;;;;;13.24;nan;102768.00;4868121;29;20453;-87
2023/01/11 01:28:24;;;;;;;4.77;2.70;;;;;;;13.27;nan;102767.69;4886901;29;20484;-88
2023/01/11 01:30:52;;;;;;;7.10;2.83;;;;;;;13.29;nan;102773.84;4867914;29;20489;-88
2023/01/11 01:33:21;;;;;;;5.63;2.73;;;;;;;13.32;nan;102768.06;4898298;29;20466;-88
2023/01/11 01:35:49;;;;;;;7.80;2.30;;;;;;;13.33;nan;102769.78;4914421;29;20449;-88
2023/01/11 01:38:17;;;;;;;4.57;2.70;;;;;;;13.36;nan;102766.72;4898271;29;20649;-88
2023/01/11 01:40:46;;;;;;;10.87;2.80;;;;;;;13.29;nan;102754.63;4890676;29;20469;-88
2023/01/11 01:43:15;;;;;;;5.97;2.40;;;;;;;13.39;nan;102772.75;4871467;29;20484;-88
2023/01/11 01:45:43;;;;;;;4.33;2.40;;;;;;;13.38;nan;102762.78;4905329;29;20448;-88
2023/01/11 01:48:18;;;;;;;6.50;2.50;;;;;;;13.41;nan;102776.19;4904145;29;20466;-87
2023/01/11 01:50:53;;;;;;;4.30;2.20;;;;;;;13.43;nan;102776.03;4920344;29;20458;-92
2023/01/11 01:53:28;;;;;;;6.03;2.50;;;;;;;13.41;nan;102770.69;4908029;29;20460;-88
2023/01/11 01:56:00;;;;;;;5.70;2.17;;;;;;;13.47;nan;102777.41;4901237;29;20464;-88
2023/01/11 01:58:35;;;;;;;9.40;2.37;;;;;;;13.48;nan;102773.63;4926786;29;20459;-87
2023/01/11 02:03:51;;;;;;;5.17;2.40;;;;;;;13.48;nan;102773.63;4909923;29;20447;-88
2023/01/11 02:06:39;;;;;;;9.40;2.00;;;;;;;13.51;nan;102780.69;4904245;29;20477;-88
2023/01/11 02:09:18;;;;;;;5.70;2.10;;;;;;;13.52;nan;102777.78;4903658;29;20463;-88
2023/01/11 02:11:46;;;;;;;3.80;1.70;;;;;;;13.48;nan;102768.13;4920776;29;20479;-88
2023/01/11 02:14:19;;;;;;;7.83;2.00;;;;;;;13.50;nan;102777.09;4904855;29;20459;-88
2023/01/11 02:16:47;;;;;;;4.17;1.83;;;;;;;13.50;nan;102774.34;4931999;29;20455;-87
2023/01/11 02:19:40;;;;;;;4.00;1.70;;;;;;;13.52;nan;102766.78;4913961;29;20457;-87
2023/01/11 02:22:38;;;;;;;8.00;2.10;;;;;;;13.55;nan;102763.72;4931298;29;20452;-89
2023/01/11 02:25:15;;;;;;;6.50;2.00;;;;;;;13.58;nan;102765.28;4925213;29;20456;-87
2023/01/11 02:28:15;;;;;;;9.40;3.00;;;;;;;13.62;nan;102761.19;4928980;29;21367;-88
2023/01/11 02:30:55;;;;;;;7.70;2.80;;;;;;;13.64;nan;102753.66;4916641;29;20951;-88
2023/01/11 02:33:42;;;;;;;8.30;2.60;;;;;;;13.63;nan;102755.53;4920933;29;20452;-88
2023/01/11 02:36:18;;;;;;;9.30;2.80;;;;;;;13.66;nan;102746.09;4900931;29;20452;-88
2023/01/11 02:39:15;;;;;;;8.60;2.10;;;;;;;13.64;nan;102757.25;4915857;29;20467;-88
2023/01/11 02:45:11;;;;;;;7.07;2.33;;;;;;;13.64;nan;102743.53;4898382;29;20454;-88
2023/01/11 02:47:48;;;;;;;8.07;2.37;;;;;;;13.66;nan;102744.19;4896961;29;20485;-89
2023/01/11 02:50:42;;;;;;;4.83;2.60;;;;;;;13.64;nan;102746.28;4898507;29;20441;-88
2023/01/11 02:53:16;;;;;;;12.43;2.60;;;;;;;13.66;nan;102746.09;4905924;29;20913;-88
2023/01/11 02:55:57;;;;;;;7.77;2.57;;;;;;;13.67;nan;102742.31;4911873;29;20532;-87
2023/01/11 02:58:27;;;;;;;7.03;2.90;;;;;;;13.65;nan;102739.75;4897457;29;20449;-88
2023/01/11 03:00:57;;;;;;;9.60;2.93;;;;;;;13.64;nan;102734.41;4866658;29;20524;-88
2023/01/11 03:03:28;;;;;;;7.33;2.60;;;;;;;13.69;nan;102740.25;4875007;29;20453;-88
2023/01/11 03:06:13;;;;;;;7.63;2.50;;;;;;;13.69;nan;102741.13;4901883;29;20453;-88
2023/01/11 03:08:58;;;;;;;10.47;2.00;;;;;;;13.68;nan;102739.38;4915501;29;20978;-88
2023/01/11 03:14:45;;;;;;;5.80;2.57;;;;;;;13.65;nan;102733.38;4916122;29;20463;-88
2023/01/11 03:17:31;;;;;;;9.27;2.10;;;;;;;13.64;nan;102728.91;4927470;29;20449;-88
2023/01/11 03:20:12;;;;;;;7.97;3.10;;;;;;;13.61;nan;102719.13;4897100;29;20457;-88
2023/01/11 03:23:14;;;;;;;5.50;2.37;;;;;;;13.60;nan;102722.88;4881370;29;20460;-88
2023/01/11 03:25:59;;;;;;;9.57;2.77;;;;;;;13.54;nan;102708.94;4915760;29;20460;-87
2023/01/11 03:29:00;;;;;;;5.33;2.30;;;;;;;13.45;nan;102711.66;4915289;29;20963;-88
2023/01/11 03:31:37;;;;;;;6.20;2.67;;;;;;;13.44;nan;102709.09;4918035;29;20546;-87
2023/01/11 03:34:17;;;;;;;8.70;2.50;;;;;;;13.43;nan;102712.84;4884146;29;20456;-88
2023/01/11 03:37:27;;;;;;;6.40;2.13;;;;;;;13.36;nan;102714.53;4900212;29;20507;-88
2023/01/11 03:40:23;;;;;;;5.40;2.20;;;;;;;13.30;nan;102706.94;4930943;29;20963;-89
2023/01/11 03:43:12;;;;;;;13.93;1.83;;;;;;;13.21;nan;102702.44;4910982;29;20532;-88
2023/01/11 03:45:52;;;;;;;8.33;2.10;;;;;;;13.18;nan;102705.50;4874685;29;20448;-88
2023/01/11 03:48:40;;;;;;;4.90;1.60;;;;;;;13.16;nan;102700.16;4877293;29;20461;-88
2023/01/11 03:51:11;;;;;;;6.30;1.87;;;;;;;13.08;nan;102692.69;4900713;29;20459;-89
2023/01/11 03:53:47;;;;;;;9.30;2.20;;;;;;;13.03;nan;102695.09;4883152;29;20864;-88
2023/01/11 03:56:16;;;;;;;5.97;1.63;;;;;;;13.01;nan;102688.91;4899782;29;20453;-88
2023/01/11 03:58:46;;;;;;;5.30;1.87;;;;;;;12.94;nan;102689.69;4880589;29;20817;-87
2023/01/11 04:01:18;;;;;;;7.63;1.43;;;;;;;12.94;nan;102690.56;4865955;29;20873;-88
2023/01/11 04:03:54;;;;;;;7.53;2.00;;;;;;;12.93;nan;102688.84;4897394;29;20458;-87
2023/01/11 04:06:26;;;;;;;53.40;29.37;;;;;;;12.88;nan;102677.50;4884018;29;20449;-88
2023/01/11 04:08:56;;;;;;;27.27;14.30;;;;;;;12.79;nan;102672.97;4900654;29;20461;-89
2023/01/11 04:11:26;;;;;;;11.23;6.27;;;;;;;12.81;nan;102681.91;4895421;29;20457;-88
2023/01/11 04:13:56;;;;;;;12.87;6.47;;;;;;;12.75;nan;102682.53;4878203;29;20454;-88
2023/01/11 04:16:24;;;;;;;6.10;2.77;;;;;;;12.74;nan;102694.53;4915705;29;20458;-88
2023/01/11 04:18:53;;;;;;;9.77;2.10;;;;;;;12.72;nan;102691.09;4869263;29;20433;-88
2023/01/11 04:21:21;;;;;;;5.03;1.30;;;;;;;12.73;nan;102687.31;4869362;29;20563;-88
2023/01/11 04:23:49;;;;;;;5.17;1.13;;;;;;;12.76;nan;102692.50;4903793;29;20508;-87
2023/01/11 04:26:20;;;;;;;6.40;1.47;;;;;;;12.77;nan;102696.97;4887497;29;20456;-88
2023/01/11 04:28:48;;;;;;;6.60;1.40;;;;;;;12.74;nan;102689.06;4885550;29;20468;-88
2023/01/11 04:31:17;;;;;;;8.80;1.40;;;;;;;12.80;nan;102699.41;4887795;29;20952;-88
2023/01/11 04:33:45;;;;;;;5.70;3.33;;;;;;;12.83;nan;102693.59;4884078;29;20833;-88
2023/01/11 04:36:21;;;;;;;15.30;7.43;;;;;;;12.84;nan;102683.47;4853839;29;20453;-88
2023/01/11 04:38:50;;;;;;;11.07;5.63;;;;;;;12.84;nan;102695.31;4823355;29;20456;-88
2023/01/11 04:44:04;;;;;;;3.70;1.70;;;;;;;12.78;nan;102676.75;4859607;29;20494;-88
2023/01/11 04:46:32;;;;;;;5.00;2.03;;;;;;;12.79;nan;102678.47;4842530;29;21027;-88
2023/01/11 04:49:06;;;;;;;4.93;1.73;;;;;;;12.80;nan;102672.81;4827760;29;20553;-88
2023/01/11 04:51:34;;;;;;;2.90;1.23;;;;;;;12.79;nan;102672.97;4815668;29;20466;-88
2023/01/11 04:54:03;;;;;;;3.87;1.47;;;;;;;12.78;nan;102674.00;4845626;29;20856;-88
2023/01/11 04:56:46;;;;;;;12.00;2.00;;;;;;;12.75;nan;102657.84;4830512;29;20457;-89
2023/01/11 04:59:16;;;;;;;5.43;1.50;;;;;;;12.74;nan;102661.59;4902763;29;20444;-88
2023/01/11 05:01:44;;;;;;;7.70;1.83;;;;;;;12.68;nan;102667.75;4887316;29;20445;-88
2023/01/11 05:04:22;;;;;;;7.57;1.80;;;;;;;12.69;nan;102677.72;4883273;29;20513;-89
2023/01/11 05:06:52;;;;;;;7.40;1.80;;;;;;;12.67;nan;102672.38;4916243;29;20450;-89
2023/01/11 05:09:20;;;;;;;9.07;1.53;;;;;;;12.68;nan;102679.59;4884084;29;20438;-89
2023/01/11 05:11:51;;;;;;;5.80;1.63;;;;;;;12.68;nan;102678.75;4881476;29;20483;-88
2023/01/11 05:14:19;;;;;;;4.87;1.70;;;;;;;12.65;nan;102679.06;4902524;29;20512;-88
2023/01/11 05:16:48;;;;;;;9.40;1.40;;;;;;;12.64;nan;102667.22;4870517;29;20862;-89
2023/01/11 05:19:18;;;;;;;8.63;2.03;;;;;;;12.72;nan;102675.50;4883314;29;20453;-88
2023/01/11 05:21:46;;;;;;;6.30;2.30;;;;;;;12.68;nan;102667.75;4901900;29;20441;-88
2023/01/11 05:24:17;;;;;;;5.43;1.90;;;;;;;12.70;nan;102677.53;4884601;29;20470;-88
2023/01/11 05:26:47;;;;;;;17.60;2.27;;;;;;;12.71;nan;102678.38;4884016;29;20454;-88
2023/01/11 05:29:20;;;;;;;4.43;1.77;;;;;;;12.76;nan;102681.53;4902295;29;20449;-88
2023/01/11 05:31:51;;;;;;;10.10;1.80;;;;;;;12.73;nan;102679.94;4883635;29;20438;-88
2023/01/11 05:34:22;;;;;;;7.60;1.80;;;;;;;12.79;nan;102689.44;4868315;29;20452;-87
2023/01/11 05:36:50;;;;;;;9.87;1.60;;;;;;;12.79;nan;102693.03;4898494;29;20517;-88
2023/01/11 05:39:21;;;;;;;10.33;2.83;;;;;;;12.78;nan;102684.97;4867883;29;20454;-88
2023/01/11 05:41:49;;;;;;;6.80;2.60;;;;;;;12.81;nan;102695.63;4867730;29;20457;-88
2023/01/11 05:47:05;;;;;;;13.07;2.33;;;;;;;12.84;nan;102687.09;4917006;29;20950;-87
2023/01/11 05:49:33;;;;;;;5.13;1.50;;;;;;;12.85;nan;102680.56;4917125;29;20456;-88
2023/01/11 05:52:01;;;;;;;10.83;2.70;;;;;;;12.82;nan;102678.16;4909734;29;20498;-87
2023/01/11 05:54:30;;;;;;;13.63;1.40;;;;;;;12.88;nan;102691.22;4889562;29;20451;-88
2023/01/11 05:56:59;;;;;;;5.23;1.30;;;;;;;12.86;nan;102689.66;4920530;29;20459;-88
2023/01/11 05:59:27;;;;;;;4.43;1.33;;;;;;;12.87;nan;102686.75;4889003;29;20947;-89
2023/01/11 06:01:58;;;;;;;6.50;1.60;;;;;;;12.86;nan;102682.28;4890115;29;20471;-88
2023/01/11 06:04:26;;;;;;;5.10;1.37;;;;;;;12.83;nan;102681.75;4888921;29;20452;-88
2023/01/11 06:07:02;;;;;;;3.30;1.67;;;;;;;12.91;nan;102693.63;4889291;29;20463;-87
2023/01/11 06:09:33;;;;;;;8.70;2.87;;;;;;;12.93;nan;102688.84;4899015;29;20468;-89
2023/01/11 06:12:01;;;;;;;11.63;3.60;;;;;;;12.94;nan;102686.97;4901459;29;20449;-87
2023/01/11 06:14:30;;;;;;;12.43;3.07;;;;;;;12.92;nan;102687.13;4886495;29;20452;-88
2023/01/11 06:17:01;;;;;;;6.20;2.53;;;;;;;13.02;nan;102704.34;4901023;29;20469;-87
2023/01/11 06:19:29;;;;;;;6.07;2.63;;;;;;;12.99;nan;102695.56;4901074;29;20461;-89
2023/01/11 06:21:59;;;;;;;3.47;1.53;;;;;;;12.99;nan;102699.19;4917279;29;20448;-89
2023/01/11 06:24:27;;;;;;;5.67;1.60;;;;;;;13.01;nan;102701.78;4916105;29;20967;-88
2023/01/11 06:26:56;;;;;;;10.77;1.90;;;;;;;13.03;nan;102700.59;4904574;29;20690;-88
2023/01/11 06:29:33;;;;;;;10.80;2.47;;;;;;;13.03;nan;102699.72;4887189;29;20465;-88
2023/01/11 06:32:03;;;;;;;5.53;1.40;;;;;;;13.01;nan;102701.78;4917834;29;20445;-88
2023/01/11 06:34:31;;;;;;;3.20;1.23;;;;;;;12.99;nan;102701.06;4901118;29;20456;-88
2023/01/11 06:37:00;;;;;;;4.23;1.53;;;;;;;13.00;nan;102706.41;4918709;29;20474;-88
2023/01/11 06:39:29;;;;;;;3.37;1.50;;;;;;;13.05;nan;102704.03;4881444;29;20456;-88
2023/01/11 06:41:59;;;;;;;9.07;2.17;;;;;;;13.06;nan;102705.75;4916365;29;20495;-89
2023/01/11 06:44:27;;;;;;;4.93;1.70;;;;;;;13.02;nan;102693.38;4917313;29;20840;-88
2023/01/11 06:46:55;;;;;;;7.17;1.57;;;;;;;13.04;nan;102701.44;4911917;29;20460;-88
2023/01/11 06:49:26;;;;;;;9.57;1.57;;;;;;;13.08;nan;102709.19;4919776;29;20452;-88
2023/01/11 06:51:54;;;;;;;14.00;2.17;;;;;;;13.08;nan;102702.84;4919538;29;20444;-88
2023/01/11 06:54:32;;;;;;;6.37;2.07;;;;;;;13.11;nan;102713.47;4902697;29;20518;-88
2023/01/11 06:57:00;;;;;;;11.80;2.13;;;;;;;13.12;nan;102710.56;4918846;29;20456;-88
2023/01/11 06:59:28;;;;;;;9.03;1.63;;;;;;;13.12;nan;102699.59;4888718;29;20498;-88
2023/01/11 07:01:57;;;;;;;5.27;1.90;;;;;;;13.15;nan;102706.69;4888388;29;20455;-88
2023/01/11 07:04:26;;;;;;;6.70;1.80;;;;;;;13.15;nan;102706.69;4888620;29;20463;-88
2023/01/11 07:06:55;;;;;;;19.03;2.60;;;;;;;13.12;nan;102710.56;4919766;29;20469;-88
2023/01/11 07:09:23;;;;;;;4.60;1.93;;;;;;;13.14;nan;102714.03;4903691;29;20451;-88
2023/01/11 07:11:52;;;;;;;8.80;2.17;;;;;;;13.16;nan;102721.28;4886166;29;20464;-88
2023/01/11 07:14:23;;;;;;;11.37;3.20;;;;;;;13.19;nan;102720.94;4890843;29;20487;-89
2023/01/11 07:16:51;;;;;;;14.10;6.00;;;;;;;13.17;nan;102714.75;4917152;29;20453;-88
2023/01/11 07:19:23;;;;;;;16.47;9.30;;;;;;;13.23;nan;102717.72;4892102;29;20989;-88
2023/01/11 07:21:53;;;;;;;14.33;7.20;;;;;;;13.20;nan;102711.69;4915894;29;20459;-88
2023/01/11 07:24:23;;;;;;;14.43;7.37;;;;;;;13.19;nan;102716.31;4900653;29;20453;-88
2023/01/11 07:26:52;;;;;;;26.40;8.40;;;;;;;13.18;nan;102713.75;4906294;29;20827;-88
2023/01/11 07:29:20;;;;;;;13.07;7.53;;;;;;;13.20;nan;102728.16;4915671;29;20832;-88
2023/01/11 07:31:48;;;;;;;24.50;12.17;;;;;;;13.21;nan;102725.25;4914031;29;20453;-88
2023/01/11 07:34:18;;;;;;;14.57;7.57;;;;;;;13.17;nan;102717.50;4931317;29;20484;-88
2023/01/11 07:36:47;;;;;;;8.93;4.90;;;;;;;13.19;nan;102726.44;4902579;29;20456;-88
2023/01/11 07:39:16;;;;;;;12.93;7.10;;;;;;;13.23;nan;102730.59;4888510;29;20459;-87
2023/01/11 07:44:43;;;;;;;17.10;8.20;;;;;;;13.25;nan;102714.81;4925016;29;20455;-87
2023/01/11 07:47:11;;;;;;;20.20;7.77;;;;;;;13.26;nan;102728.38;4902463;29;20456;-88
2023/01/11 07:49:42;;;;;;;14.20;7.90;;;;;;;13.22;nan;102720.63;4904273;29;20441;-88
2023/01/11 07:52:10;;;;;;;13.87;8.20;;;;;;;13.23;nan;102727.84;4938676;29;20459;-88
2023/01/11 07:54:39;;;;;;;17.40;7.43;;;;;;;13.23;nan;102720.47;4906923;29;20491;-88
2023/01/11 07:57:07;;;;;;;16.40;4.90;;;;;;;13.22;nan;102731.63;4904592;29;20448;-88
2023/01/11 07:59:37;;;;;;;7.63;4.60;;;;;;;13.25;nan;102740.41;4888600;29;20499;-88
2023/01/11 08:02:05;;;;;;;16.63;5.60;;;;;;;13.20;nan;102739.16;4919479;29;20445;-88
2023/01/11 08:04:33;;;;;;;13.07;5.77;;;;;;;13.24;nan;102751.53;4887791;29;20468;-87
2023/01/11 08:07:01;;;;;;;17.17;9.03;;;;;;;13.17;nan;102731.22;4887881;29;20455;-88
2023/01/11 08:09:31;;;;;;;19.67;8.87;;;;;;;13.24;nan;102746.06;4915084;29;20531;-88
2023/01/11 08:14:47;;;;;;;10.10;4.97;;;;;;;13.30;nan;102746.25;4908022;29;20468;-89
2023/01/11 08:17:16;;;;;;;14.47;6.03;;;;;;;13.29;nan;102732.66;4920931;29;20859;-89
2023/01/11 08:19:45;;;;;;;13.53;4.93;;;;;;;13.30;nan;102739.88;4891479;29;20459;-88
2023/01/11 08:22:18;;;;;;;11.20;4.77;;;;;;;13.40;nan;102752.50;4904932;29;20820;-88
2023/01/11 08:24:46;;;;;;;7.83;3.90;;;;;;;13.42;nan;102755.94;4903812;29;20468;-88
2023/01/11 08:27:14;;;;;;;13.97;4.43;;;;;;;13.44;nan;102755.78;4905232;29;20479;-87
2023/01/11 08:29:44;;;;;;;22.30;4.73;;;;;;;13.47;nan;102753.53;4903488;29;20449;-88
2023/01/11 08:32:13;;;;;;;18.00;4.90;;;;;;;13.49;nan;102746.00;4887579;29;20457;-88
2023/01/11 08:34:42;;;;;;;12.70;5.30;;;;;;;13.45;nan;102750.13;4913869;29;20481;-88
2023/01/11 08:37:10;;;;;;;10.63;4.50;;;;;;;13.49;nan;102758.88;4887511;29;20478;-87
2023/01/11 08:39:39;;;;;;;12.70;5.47;;;;;;;13.46;nan;102748.25;4887621;29;20499;-88
2023/01/11 08:42:06;;;;;;;15.23;5.63;;;;;;;13.47;nan;102737.06;4908160;29;20464;-87
2023/01/11 08:44:37;;;;;;;10.53;5.70;;;;;;;13.44;nan;102737.41;4890869;29;20452;-87
2023/01/11 08:47:06;;;;;;;16.77;5.17;;;;;;;13.52;nan;102761.31;4904912;29;20444;-87
2023/01/11 08:49:35;;;;;;;11.40;5.00;;;;;;;13.57;nan;102758.06;4930129;29;20449;-88
2023/01/11 08:52:04;;;;;;;15.10;6.83;;;;;;;13.57;nan;102747.94;4904732;29;20448;-88
2023/01/11 08:54:34;;;;;;;24.37;8.00;;;;;;;13.84;nan;102763.34;4903843;29;20853;-88
2023/01/11 08:57:02;;;;;;;15.83;6.93;;;;;;;14.04;nan;102763.94;4904449;29;20448;-88
2023/01/11 08:59:30;;;;;;;10.80;5.53;;;;;;;14.22;nan;102764.69;4905200;29;20450;-88
2023/01/11 09:02:01;;;;;;;11.30;5.53;;;;;;;14.36;nan;102766.75;4886578;29;20453;-88
2023/01/11 09:04:30;;;;;;;13.60;5.97;;;;;;;14.40;nan;102762.69;4902051;29;20448;-89
2023/01/11 09:06:58;;;;;;;16.03;6.60;;;;;;;14.49;nan;102761.66;4887881;29;21033;-87
2023/01/11 09:09:26;;;;;;;13.30;5.40;;;;;;;14.60;nan;102767.88;4909465;29;20450;-87
2023/01/11 09:11:55;;;;;;;11.97;5.10;;;;;;;14.68;nan;102776.09;4917112;29;20851;-87
2023/01/11 09:14:25;;;;;;;10.53;5.10;;;;;;;14.79;nan;102767.53;4920276;29;20483;-86
2023/01/11 09:16:57;;;;;;;10.50;4.90;;;;;;;14.82;nan;102761.66;4903838;29;20456;-91
2023/01/11 09:19:42;;;;;;;14.50;5.10;;;;;;;14.98;nan;102760.81;4903495;29;20460;-91
2023/01/11 09:22:14;;;;;;;7.80;3.80;;;;;;;15.13;nan;102768.19;4903349;29;20861;-90
2023/01/11 09:24:46;;;;;;;10.00;5.33;;;;;;;15.28;nan;102767.47;4899220;29;20585;-88
2023/01/11 09:27:14;;;;;;;8.97;3.07;;;;;;;15.44;nan;102770.19;4917584;29;20474;-87
2023/01/11 09:29:42;;;;;;;7.33;3.50;;;;;;;15.57;nan;102777.94;4904156;29;20440;-86
2023/01/11 09:32:11;;;;;;;10.50;4.00;;;;;;;15.66;nan;102761.19;4920686;29;20451;-89
2023/01/11 09:34:40;;;;;;;6.40;3.60;;;;;;;15.79;nan;102766.97;4905370;29;20486;-86
2023/01/11 09:37:21;;;;;;;4.97;2.20;;;;;;;15.87;nan;102764.22;4903118;29;20441;-91
2023/01/11 09:39:50;;;;;;;4.87;2.00;;;;;;;15.87;nan;102757.84;4916452;29;20460;-89
2023/01/11 09:42:35;;;;;;;8.33;2.40;;;;;;;15.93;nan;102764.53;4902142;29;20479;-88
2023/01/11 09:45:23;;;;;;;7.17;2.40;;;;;;;15.93;nan;102767.28;4919378;29;20460;-88
2023/01/11 09:48:11;;;;;;;9.57;2.90;;;;;;;15.94;nan;102774.53;4905291;29;20463;-89
2023/01/11 09:50:46;;;;;;;11.73;3.07;;;;;;;15.97;nan;102768.66;4907108;29;20452;-88
2023/01/11 09:53:26;;;;;;;15.50;4.80;;;;;;;16.02;nan;102780.00;4921107;29;20989;-88
2023/01/11 09:55:58;;;;;;;9.60;3.80;;;;;;;15.99;nan;102772.94;4921305;29;20990;-88
2023/01/11 09:59:17;;;;;;;9.40;2.57;;;;;;;16.09;nan;102781.00;4906415;29;20459;-88
2023/01/11 10:02:10;;;;;;;10.23;2.60;;;;;;;16.13;nan;102788.75;4937219;29;20455;-88
2023/01/11 10:05:29;;;;;;;6.80;2.37;;;;;;;16.10;nan;102788.25;4921188;29;20464;-88
2023/01/11 10:08:24;;;;;;;12.00;4.20;;;;;;;16.11;nan;102792.72;4906160;29;20443;-88
2023/01/11 10:11:30;;;;;;;6.00;2.80;;;;;;;16.06;nan;102787.72;4926272;29;20436;-88
2023/01/11 10:14:30;;;;;;;7.03;2.80;;;;;;;16.08;nan;102798.59;4923022;29;20499;-88
2023/01/11 10:17:49;;;;;;;7.17;3.70;;;;;;;16.14;nan;102800.63;4923060;29;20792;-88
2023/01/11 10:20:42;;;;;;;4.33;1.87;;;;;;;16.16;nan;102795.81;4935628;29;20993;-88
2023/01/11 10:23:27;;;;;;;7.40;1.57;;;;;;;16.30;nan;102797.78;4905504;29;20837;-88
2023/01/11 10:25:59;;;;;;;2.77;1.00;;;;;;;16.32;nan;102801.22;4920291;29;20968;-88
2023/01/11 10:28:49;;;;;;;4.90;1.30;;;;;;;16.46;nan;102805.09;4890032;29;20955;-88
2023/01/11 10:31:46;;;;;;;9.23;1.90;;;;;;;16.50;nan;102804.56;4921671;29;20456;-88
2023/01/11 10:42:52;;;;;;;6.20;1.80;;;;;;;17.10;nan;102812.06;4921353;29;20479;-88
2023/01/11 10:45:49;;;;;;;7.87;0.90;;;;;;;17.35;nan;102806.28;4904411;29;20452;-88
2023/01/11 10:48:26;;;;;;;9.87;1.60;;;;;;;17.61;nan;102807.56;4919946;29;20459;-88
2023/01/11 10:51:00;;;;;;;6.20;1.90;;;;;;;17.64;nan;102808.25;4904936;29;20942;-88
2023/01/11 10:53:36;;;;;;;8.20;2.13;;;;;;;17.70;nan;102819.44;4920030;29;20479;-89
2023/01/11 10:56:44;;;;;;;5.03;1.73;;;;;;;17.69;nan;102817.72;4920134;29;20454;-88
2023/01/11 10:59:55;;;;;;;5.47;1.40;;;;;;;17.67;nan;102814.28;4922375;29;20464;-88
2023/01/11 11:02:31;;;;;;;4.83;1.80;;;;;;;17.73;nan;102823.72;4919774;29;20447;-88
2023/01/11 11:05:24;;;;;;;5.57;1.97;;;;;;;17.80;nan;102814.47;4920226;29;20885;-88
2023/01/11 11:07:51;;;;;;;6.27;2.07;;;;;;;17.82;nan;102812.38;4919806;29;20459;-88
2023/01/11 11:10:45;;;;;;;3.57;1.50;;;;;;;17.95;nan;102807.03;4919728;29;20452;-88
2023/01/11 11:13:25;;;;;;;4.17;1.43;;;;;;;18.14;nan;102800.03;4840891;29;20449;-88
2023/01/11 11:16:03;;;;;;;4.03;1.00;;;;;;;18.39;nan;102802.47;4826514;29;20468;-88
2023/01/11 11:18:33;;;;;;;4.70;2.27;;;;;;;18.46;nan;102793.19;4844320;29;20464;-88
2023/01/11 11:21:14;;;;;;;4.50;1.70;;;;;;;18.61;nan;102791.25;4816588;29;20500;-88
2023/01/11 11:23:42;;;;;;;6.47;2.30;;;;;;;18.80;nan;102788.88;4829909;29;20452;-88
2023/01/11 11:26:10;;;;;;;3.30;0.83;;;;;;;18.94;nan;102796.25;4814444;29;20449;-89
2023/01/11 11:28:38;;;;;;;5.40;2.20;;;;;;;18.97;nan;102791.19;4829083;29;20453;-88
2023/01/11 11:31:12;;;;;;;4.63;1.27;;;;;;;18.97;nan;102784.78;4826592;29;20457;-87
2023/01/11 11:33:40;;;;;;;4.93;1.53;;;;;;;18.90;nan;102778.31;4829058;29;20487;-88
2023/01/11 11:36:13;;;;;;;6.40;1.53;;;;;;;18.82;nan;102779.31;4829062;29;20455;-88
2023/01/11 11:39:10;;;;;;;3.00;1.13;;;;;;;18.80;nan;102773.13;4844124;29;20459;-89
2023/01/11 11:42:08;;;;;;;8.17;3.37;;;;;;;18.83;nan;102781.03;4844195;29;20913;-89
2023/01/11 11:44:39;;;;;;;6.03;2.30;;;;;;;18.78;nan;102768.81;4828952;29;20464;-88
2023/01/11 11:47:16;;;;;;;9.87;2.43;;;;;;;18.80;nan;102766.72;4828538;29;20475;-89
2023/01/11 11:49:45;;;;;;;10.53;4.27;;;;;;;18.90;nan;102770.00;4838244;29;20447;-89
2023/01/11 11:52:17;;;;;;;10.03;3.97;;;;;;;18.99;nan;102763.25;4938215;29;20462;-88
2023/01/11 11:54:54;;;;;;;4.27;1.50;;;;;;;19.02;nan;102757.31;4923075;29;20483;-89
2023/01/11 11:57:30;;;;;;;5.20;2.10;;;;;;;19.03;nan;102749.88;4891947;29;20455;-88
2023/01/11 12:00:19;;;;;;;4.90;1.43;;;;;;;19.01;nan;102740.91;4907248;29;20462;-88
2023/01/11 12:02:57;;;;;;;3.33;1.27;;;;;;;19.01;nan;102747.28;4909564;29;20460;-88
2023/01/11 12:05:25;;;;;;;2.47;0.60;;;;;;;18.96;nan;102738.72;4892241;29;20451;-88
2023/01/11 12:07:54;;;;;;;8.20;1.67;;;;;;;18.93;nan;102739.13;4906429;29;20568;-89
2023/01/11 12:10:24;;;;;;;4.63;0.80;;;;;;;18.92;nan;102737.41;4907088;29;20451;-89
2023/01/11 12:12:57;;;;;;;3.27;0.53;;;;;;;18.89;nan;102735.03;4907224;29;20448;-88
2023/01/11 12:15:27;;;;;;;5.27;0.83;;;;;;;18.78;nan;102746.66;4907218;29;20863;-89
2023/01/11 12:18:25;;;;;;;5.37;0.87;;;;;;;18.43;nan;102759.50;4893010;29;20503;-89
2023/01/11 12:20:54;;;;;;;10.00;1.23;;;;;;;17.97;nan;102747.88;4922222;29;20507;-89
2023/01/11 12:23:26;;;;;;;9.53;1.83;;;;;;;17.71;nan;102743.69;4906841;29;20514;-88
2023/01/11 12:26:12;;;;;;;4.33;0.63;;;;;;;17.51;nan;102742.56;4906950;29;20476;-88
2023/01/11 12:29:01;;;;;;;4.03;0.90;;;;;;;17.39;nan;102744.91;4921699;29;20798;-88
2023/01/11 12:31:49;;;;;;;3.60;0.50;;;;;;;17.32;nan;102726.53;4880177;29;20447;-88
2023/01/11 12:34:54;;;;;;;18.67;13.30;;;;;;;17.27;nan;102725.19;4850801;29;20474;-88
2023/01/11 12:37:26;;;;;;;10.97;2.57;;;;;;;17.32;nan;102726.53;4864597;29;20829;-89
2023/01/11 12:40:03;;;;;;;4.30;0.70;;;;;;;17.37;nan;102718.50;4880187;29;20450;-88
2023/01/11 12:43:09;;;;;;;1.70;0.60;;;;;;;17.40;nan;102718.13;4860792;29;20475;-88
2023/01/11 12:46:15;;;;;;;5.40;0.70;;;;;;;17.48;nan;102710.63;4845853;29;20482;-88
2023/01/11 12:49:18;;;;;;;3.13;0.60;;;;;;;17.57;nan;102703.06;4842344;29;20831;-88
2023/01/11 12:52:24;;;;;;;16.20;0.93;;;;;;;17.71;nan;102693.91;4788032;30;20465;-88
2023/01/11 12:55:09;;;;;;;4.53;1.10;;;;;;;17.74;nan;102688.00;4773967;30;20495;-88
2023/01/11 12:57:59;;;;;;;6.53;1.17;;;;;;;17.76;nan;102690.56;4788672;29;20459;-88